Time;durP1;ratioP1;P1;durP2;ratioP2;P2;SDS_P1;SDS_P2;PMS_P1;PMS_P2;Temp;Humidity;BMP_temperature;BMP_pressure;BME280_temperature;BME280_humidity;BME280_pressure;Samples;Min_cycle;Max_cycle;Signal;HPM_P1;HPM_P2
2020/01/10 00:00:31;;;;;;;10.1;5.5;;;;;;;2.61;78.62695;938.0545;;;;
2020/01/10 00:02:56;;;;;;;8.7;5.4;;;;;;;2.57;78.62988;938.0502;;;;
2020/01/10 00:05:21;;;;;;;8.8;5.3;;;;;;;2.47;78.97949;938.0541;;;;
2020/01/10 00:07:47;;;;;;;8.9;4.9;;;;;;;2.39;79.31543;937.9928;;;;
2020/01/10 00:10:12;;;;;;;7;4.6;;;;;;;2.39;79.62598;937.8975;;;;
2020/01/10 00:12:37;;;;;;;8.3;5;;;;;;;2.43;79.20996;937.9371;;;;
2020/01/10 00:15:02;;;;;;;7.7;5.2;;;;;;;2.39;78.99805;937.8566;;;;
2020/01/10 00:17:27;;;;;;;8.9;5.1;;;;;;;2.34;79.25879;937.9411;;;;
2020/01/10 00:19:52;;;;;;;8.3;5.3;;;;;;;2.27;79.72852;937.9014;;;;
2020/01/10 00:22:18;;;;;;;9.6;5.4;;;;;;;2.26;79.68164;937.8777;;;;
2020/01/10 00:24:43;;;;;;;7.6;4.8;;;;;;;2.38;79.24512;937.8722;;;;
2020/01/10 00:27:08;;;;;;;6.7;4.5;;;;;;;2.48;78.83887;937.8826;;;;
2020/01/10 00:29:33;;;;;;;7.2;4.5;;;;;;;2.49;78.83887;937.8845;;;;
2020/01/10 00:31:59;;;;;;;8.3;5.1;;;;;;;2.39;78.70703;937.9509;;;;
2020/01/10 00:34:24;;;;;;;10.3;6;;;;;;;2.19;79.49902;937.9263;;;;
2020/01/10 00:36:49;;;;;;;12.3;6.5;;;;;;;2.1;79.74121;937.9183;;;;
2020/01/10 00:39:14;;;;;;;10.1;5.5;;;;;;;2.01;80.55273;937.9916;;;;
2020/01/10 00:41:39;;;;;;;9.1;5;;;;;;;1.99;80.96289;937.9761;;;;
2020/01/10 00:44:05;;;;;;;6.6;3.9;;;;;;;2.08;80.66699;938.0076;;;;
2020/01/10 00:46:30;;;;;;;8;3.7;;;;;;;2.1;80.93848;938.0233;;;;
2020/01/10 00:48:55;;;;;;;8.3;4.5;;;;;;;2.2;80.61035;937.9878;;;;
2020/01/10 00:51:21;;;;;;;12.8;6.5;;;;;;;2.22;80.35645;938.0644;;;;
2020/01/10 00:53:46;;;;;;;13.7;6.3;;;;;;;2.39;79.5957;938.128;;;;
2020/01/10 00:56:12;;;;;;;12.7;6;;;;;;;2.6;78.44629;938.165;;;;
2020/01/10 00:58:36;;;;;;;7;3.8;;;;;;;2.6;78.18848;938.176;;;;
2020/01/10 01:01:12;;;;;;;6;3.9;;;;;;;2.66;77.52637;938.171;;;;
2020/01/10 01:03:40;;;;;;;6.6;3.8;;;;;;;2.64;77.45508;938.3144;;;;
2020/01/10 01:06:07;;;;;;;6;3.5;;;;;;;2.66;77.44727;938.2912;;;;
2020/01/10 01:10:57;;;;;;;7;3.9;;;;;;;2.68;77.25977;938.4469;;;;
2020/01/10 01:13:07;;;;;;;7.1;3.8;;;;;;;2.5;77.66602;938.4886;;;;
2020/01/10 01:17:59;;;;;;;9.3;4.9;;;;;;;2.54;78.25586;938.6057;;;;
2020/01/10 01:22:48;;;;;;;6.1;4.2;;;;;;;2.36;78.83691;938.7008;;;;
2020/01/10 01:25:13;;;;;;;6.6;4.3;;;;;;;2.4;78.46387;938.7946;;;;
2020/01/10 01:27:38;;;;;;;8.6;4.5;;;;;;;2.48;77.89844;938.8147;;;;
2020/01/10 01:30:04;;;;;;;6.7;3.8;;;;;;;2.47;77.6582;938.9483;;;;
2020/01/10 01:32:29;;;;;;;6.7;4.4;;;;;;;2.43;77.5293;938.9391;;;;
2020/01/10 01:34:54;;;;;;;7.2;4.2;;;;;;;2.32;78.28125;939.0212;;;;
2020/01/10 01:37:20;;;;;;;7.2;4;;;;;;;2.35;78.18652;939.0793;;;;
2020/01/10 01:39:46;;;;;;;8.5;4.3;;;;;;;2.42;77.66211;939.1431;;;;
2020/01/10 01:42:11;;;;;;;6.6;4.2;;;;;;;2.47;77.43359;939.0882;;;;
2020/01/10 01:44:36;;;;;;;7.4;3.9;;;;;;;2.44;77.89941;939.1272;;;;
2020/01/10 01:47:01;;;;;;;8.1;4.2;;;;;;;2.35;78.01855;939.2129;;;;
2020/01/10 01:49:26;;;;;;;6.9;4.1;;;;;;;2.33;77.60059;939.2067;;;;
2020/01/10 01:51:51;;;;;;;6.9;4.3;;;;;;;2.19;78.44629;939.2505;;;;
2020/01/10 01:54:16;;;;;;;7.6;4.4;;;;;;;2.08;78.60742;939.3191;;;;
2020/01/10 01:56:42;;;;;;;9.6;4.9;;;;;;;2.14;78.45996;939.2831;;;;
2020/01/10 01:59:07;;;;;;;9.6;5.5;;;;;;;2.15;78.5752;939.3597;;;;
2020/01/10 02:01:32;;;;;;;7.1;4.1;;;;;;;1.98;79.64063;939.3625;;;;
2020/01/10 02:03:57;;;;;;;6.8;4.1;;;;;;;1.87;79.82031;939.447;;;;
2020/01/10 02:06:22;;;;;;;6.8;4.2;;;;;;;1.81;79.83203;939.4673;;;;
2020/01/10 02:08:47;;;;;;;7.6;3.9;;;;;;;1.88;79.66504;939.4756;;;;
2020/01/10 02:11:12;;;;;;;7.5;4.2;;;;;;;1.92;79.22559;939.4869;;;;
2020/01/10 02:13:37;;;;;;;7;3.9;;;;;;;1.75;80.07715;939.4846;;;;
2020/01/10 02:16:03;;;;;;;7.2;3.7;;;;;;;1.8;80.01855;939.4664;;;;
2020/01/10 02:18:28;;;;;;;6.9;4;;;;;;;1.73;79.91797;939.5728;;;;
2020/01/10 02:21:32;;;;;;;7.3;4.2;;;;;;;1.71;79.99121;939.5645;;;;
2020/01/10 02:23:58;;;;;;;6.5;3.8;;;;;;;1.81;79.68652;939.6197;;;;
2020/01/10 02:26:23;;;;;;;8;4.3;;;;;;;1.85;79.26855;939.6125;;;;
2020/01/10 02:28:48;;;;;;;6.8;4;;;;;;;1.79;79.61621;939.6609;;;;
2020/01/10 02:31:13;;;;;;;5.9;3.7;;;;;;;1.76;80.16895;939.6069;;;;
2020/01/10 02:33:38;;;;;;;6;3.5;;;;;;;1.65;80.28418;939.7198;;;;
2020/01/10 02:36:03;;;;;;;6.9;3.8;;;;;;;1.47;81.04199;939.7819;;;;
2020/01/10 02:38:28;;;;;;;7.4;3.7;;;;;;;1.37;82.03027;939.7875;;;;
2020/01/10 02:40:53;;;;;;;6.2;3.3;;;;;;;1.29;82.48438;939.7242;;;;
2020/01/10 02:43:18;;;;;;;4.9;3.2;;;;;;;1.33;82.25586;939.7712;;;;
2020/01/10 02:45:44;;;;;;;6.1;3.3;;;;;;;1.36;81.95996;939.7767;;;;
2020/01/10 02:48:09;;;;;;;5.6;3.2;;;;;;;1.41;81.58984;939.7872;;;;
2020/01/10 02:50:34;;;;;;;5.1;3.2;;;;;;;1.37;81.52539;939.8164;;;;
2020/01/10 02:52:59;;;;;;;4.9;2.9;;;;;;;1.42;81.46777;939.8038;;;;
2020/01/10 02:55:24;;;;;;;5.2;2.9;;;;;;;1.5;81.00391;939.7936;;;;
2020/01/10 02:57:49;;;;;;;5;2.8;;;;;;;1.47;81.25391;939.818;;;;
2020/01/10 03:00:14;;;;;;;4.1;2.5;;;;;;;1.48;81.28027;939.7921;;;;
2020/01/10 03:02:39;;;;;;;6.6;2.6;;;;;;;1.58;80.7832;939.8033;;;;
2020/01/10 03:05:04;;;;;;;4;2.6;;;;;;;1.63;80.19922;939.7768;;;;
2020/01/10 03:07:30;;;;;;;5.9;3.2;;;;;;;1.45;80.3916;939.7969;;;;
2020/01/10 03:09:55;;;;;;;6.8;3.3;;;;;;;1.45;80.43457;939.7653;;;;
2020/01/10 03:12:20;;;;;;;7;3.4;;;;;;;1.32;81.11523;939.7717;;;;
2020/01/10 03:14:45;;;;;;;8.6;3.9;;;;;;;1.37;81.10156;939.7019;;;;
2020/01/10 03:17:17;;;;;;;8.2;3.9;;;;;;;1.32;80.8916;939.7867;;;;
2020/01/10 03:19:40;;;;;;;7.5;3.5;;;;;;;1.46;80.62793;939.7456;;;;
2020/01/10 03:22:01;;;;;;;9.8;4.2;;;;;;;1.51;80.15625;939.7531;;;;
2020/01/10 03:28:12;;;;;;;11.5;4.6;;;;;;;1.62;80.36719;939.7137;;;;
2020/01/10 03:29:16;;;;;;;11;4.4;;;;;;;1.75;79.93262;939.7115;;;;
2020/01/10 03:31:41;;;;;;;10;4.2;;;;;;;1.8;79.46094;939.7332;;;;
2020/01/10 03:34:06;;;;;;;9.5;4.2;;;;;;;1.88;79.00684;939.7177;;;;
2020/01/10 03:36:31;;;;;;;7.7;3.5;;;;;;;1.93;78.70215;939.6633;;;;
2020/01/10 03:38:56;;;;;;;5.6;3;;;;;;;1.88;78.79395;939.6612;;;;
2020/01/10 03:41:21;;;;;;;4.4;2.4;;;;;;;1.97;78.62012;939.5967;;;;
2020/01/10 03:43:47;;;;;;;6;2.9;;;;;;;1.99;78.00977;939.6559;;;;
2020/01/10 03:48:38;;;;;;;3.5;2.2;;;;;;;2.01;78.03418;939.6845;;;;
2020/01/10 03:51:44;;;;;;;5.6;3.2;;;;;;;2.06;78.06445;939.7107;;;;
2020/01/10 03:53:31;;;;;;;5.7;3.7;;;;;;;2.01;77.79883;939.7049;;;;
2020/01/10 03:55:52;;;;;;;4.8;3.2;;;;;;;1.79;78.65234;939.6575;;;;
2020/01/10 03:58:17;;;;;;;5.7;3.4;;;;;;;1.87;78.35645;939.7235;;;;
2020/01/10 04:02:30;;;;;;;3.7;2.1;;;;;;;1.91;77.9043;939.7128;;;;
2020/01/10 04:04:55;;;;;;;3.1;2.1;;;;;;;1.81;78.27734;939.8097;;;;
2020/01/10 04:07:20;;;;;;;3.1;2.1;;;;;;;1.68;79.18164;939.7997;;;;
2020/01/10 04:09:47;;;;;;;3.6;1.9;;;;;;;1.75;78.71484;939.7731;;;;
2020/01/10 04:17:01;;;;;;;3.5;2.1;;;;;;;1.83;77.74316;939.9487;;;;
2020/01/10 04:19:26;;;;;;;3.6;2.4;;;;;;;1.74;79.23828;939.9617;;;;
2020/01/10 04:21:51;;;;;;;4.8;3.3;;;;;;;1.57;79.65234;940.0134;;;;
2020/01/10 04:24:16;;;;;;;11.2;5.9;;;;;;;1.59;79.43359;940.0338;;;;
2020/01/10 04:26:41;;;;;;;16;8.6;;;;;;;1.55;79.62598;940.0069;;;;
2020/01/10 04:29:07;;;;;;;11.4;6.5;;;;;;;1.55;79.53711;940.017;;;;
2020/01/10 04:31:32;;;;;;;14.6;8;;;;;;;1.49;79.7168;940.0457;;;;
2020/01/10 04:33:57;;;;;;;20.6;10.5;;;;;;;1.38;80.16406;940.0937;;;;
2020/01/10 04:36:22;;;;;;;15.4;7.8;;;;;;;1.46;79.93555;940.1332;;;;
2020/01/10 04:38:47;;;;;;;12.4;6.5;;;;;;;1.48;79.50098;940.213;;;;
2020/01/10 04:41:12;;;;;;;12.9;7.1;;;;;;;1.46;79.64258;940.1957;;;;
2020/01/10 04:43:37;;;;;;;20.2;9.9;;;;;;;1.48;79.0332;940.1671;;;;
2020/01/10 04:46:02;;;;;;;17.5;9.5;;;;;;;1.45;79.2832;940.2888;;;;
2020/01/10 04:48:27;;;;;;;12.3;6.9;;;;;;;1.37;79.62598;940.3342;;;;
2020/01/10 04:50:53;;;;;;;11;6.1;;;;;;;1.35;80.27246;940.4345;;;;
2020/01/10 04:53:18;;;;;;;10;5.9;;;;;;;1.28;80.95117;940.3778;;;;
2020/01/10 04:55:43;;;;;;;9;5.1;;;;;;;1.27;81.03711;940.4291;;;;
2020/01/10 04:58:08;;;;;;;8.7;5;;;;;;;1.35;80.69531;940.4462;;;;
2020/01/10 05:00:33;;;;;;;10.7;6.2;;;;;;;1.32;80.19629;940.3801;;;;
2020/01/10 05:02:58;;;;;;;11.8;7.1;;;;;;;1.29;80.37012;940.3301;;;;
2020/01/10 05:05:23;;;;;;;8.7;5.6;;;;;;;1.25;80.0957;940.3481;;;;
2020/01/10 05:07:48;;;;;;;6.9;4.5;;;;;;;1.2;80.00879;940.3592;;;;
2020/01/10 05:10:14;;;;;;;6.8;4.6;;;;;;;1.13;80.19629;940.3522;;;;
2020/01/10 05:12:39;;;;;;;7.3;5.1;;;;;;;1.06;80.91895;940.345;;;;
2020/01/10 05:15:04;;;;;;;9.7;5.9;;;;;;;1.06;81.25488;940.4178;;;;
2020/01/10 05:17:29;;;;;;;8.6;6.4;;;;;;;1.12;80.92969;940.4504;;;;
2020/01/10 05:19:54;;;;;;;12.4;8.2;;;;;;;1.1;81.08301;940.5044;;;;
2020/01/10 05:22:19;;;;;;;12.4;8.2;;;;;;;1.16;80.78223;940.5201;;;;
2020/01/10 05:24:44;;;;;;;38.6;30.3;;;;;;;1.21;80.09961;940.6028;;;;
2020/01/10 05:27:09;;;;;;;40.5;30.2;;;;;;;1.24;79.63379;940.5874;;;;
2020/01/10 05:29:34;;;;;;;22.3;15.2;;;;;;;1.25;80.0957;940.5276;;;;
2020/01/10 05:31:59;;;;;;;14.8;9.4;;;;;;;1.18;80.36133;940.6266;;;;
2020/01/10 05:34:24;;;;;;;18.7;10.4;;;;;;;1.17;80.16895;940.6106;;;;
2020/01/10 05:36:49;;;;;;;15.1;9.8;;;;;;;1.17;80.14746;940.6364;;;;
2020/01/10 05:39:14;;;;;;;16.8;10.6;;;;;;;1.21;80.20996;940.5862;;;;
2020/01/10 05:41:39;;;;;;;12.4;8.5;;;;;;;1.1;80.33398;940.5671;;;;
2020/01/10 05:44:05;;;;;;;10;6.9;;;;;;;1;80.69727;940.5531;;;;
2020/01/10 05:46:30;;;;;;;10.5;6.7;;;;;;;1.05;80.57129;940.6308;;;;
2020/01/10 05:48:55;;;;;;;10.6;7.4;;;;;;;0.87;81.26074;940.6097;;;;
2020/01/10 05:51:20;;;;;;;10.5;8.1;;;;;;;0.79;81.53711;940.6198;;;;
2020/01/10 05:53:45;;;;;;;8.3;6.5;;;;;;;0.84;81.38965;940.6192;;;;
2020/01/10 05:56:10;;;;;;;6.9;5.2;;;;;;;0.85;81.40234;940.6839;;;;
2020/01/10 05:58:35;;;;;;;6.9;4.7;;;;;;;0.87;81.33008;940.7141;;;;
2020/01/10 06:01:01;;;;;;;6.3;4.2;;;;;;;0.84;81.64648;940.6395;;;;
2020/01/10 06:03:26;;;;;;;5;3.9;;;;;;;0.88;81.18652;940.7531;;;;
2020/01/10 06:05:51;;;;;;;4.3;3.1;;;;;;;0.93;80.69238;940.724;;;;
2020/01/10 06:08:17;;;;;;;3.8;2.9;;;;;;;0.88;80.88477;940.756;;;;
2020/01/10 06:10:42;;;;;;;4.1;2.8;;;;;;;0.94;80.2832;940.7395;;;;
2020/01/10 06:13:07;;;;;;;3.2;2.4;;;;;;;0.96;80.48535;940.8375;;;;
2020/01/10 06:15:32;;;;;;;4.3;2.7;;;;;;;0.94;80.42676;940.8161;;;;
2020/01/10 06:17:57;;;;;;;12;7.5;;;;;;;0.8;80.73535;940.8397;;;;
2020/01/10 06:20:22;;;;;;;13.8;9.4;;;;;;;0.72;80.9541;940.8395;;;;
2020/01/10 06:22:56;;;;;;;11.7;8.4;;;;;;;0.76;81.15234;940.9155;;;;
2020/01/10 06:28:16;;;;;;;11.6;7.9;;;;;;;0.82;81.19824;940.993;;;;
2020/01/10 06:30:28;;;;;;;8.1;6.1;;;;;;;0.83;81.37891;940.9773;;;;
2020/01/10 06:32:53;;;;;;;8.1;5.2;;;;;;;0.81;81.48535;940.9785;;;;
2020/01/10 06:35:18;;;;;;;9;5.5;;;;;;;0.81;81.2373;940.9484;;;;
2020/01/10 06:37:44;;;;;;;9.6;5.8;;;;;;;0.91;80.5791;941.0142;;;;
2020/01/10 06:40:09;;;;;;;9.6;5.8;;;;;;;1.05;80.02441;940.9648;;;;
2020/01/10 06:42:34;;;;;;;10.3;6.3;;;;;;;1.06;79.83594;940.9333;;;;
2020/01/10 06:44:59;;;;;;;9.3;6.2;;;;;;;1.09;79.71875;941.0233;;;;
2020/01/10 06:47:25;;;;;;;10.2;6.1;;;;;;;0.97;79.97559;941.0947;;;;
2020/01/10 06:49:50;;;;;;;8.3;5.3;;;;;;;0.65;81.54297;941.0875;;;;
2020/01/10 06:52:15;;;;;;;10.4;5.7;;;;;;;0.5;82.48535;941.1923;;;;
2020/01/10 06:54:41;;;;;;;10.9;6.4;;;;;;;0.49;84.42188;941.09;;;;
2020/01/10 06:57:06;;;;;;;14.9;10.1;;;;;;;0.55;83.47754;941.1835;;;;
2020/01/10 06:59:31;;;;;;;20;12.6;;;;;;;0.62;82.78711;941.1909;;;;
2020/01/10 07:01:57;;;;;;;25.6;15.8;;;;;;;0.71;81.70215;941.2758;;;;
2020/01/10 07:04:22;;;;;;;23.7;16.3;;;;;;;0.84;80.93359;941.2762;;;;
2020/01/10 07:06:47;;;;;;;30.8;21.3;;;;;;;0.93;81.08301;941.2197;;;;
2020/01/10 07:09:13;;;;;;;28.1;19.9;;;;;;;1.01;79.70313;941.3517;;;;
2020/01/10 07:11:38;;;;;;;29.6;18.8;;;;;;;1.01;80.17188;941.375;;;;
2020/01/10 07:14:03;;;;;;;27.3;17.2;;;;;;;1.02;80.0752;941.3631;;;;
2020/01/10 07:16:28;;;;;;;18.8;12.2;;;;;;;1.02;80.34082;941.3833;;;;
2020/01/10 07:18:53;;;;;;;18.1;12;;;;;;;1.04;80.06543;941.3868;;;;
2020/01/10 07:23:45;;;;;;;13.2;8.7;;;;;;;0.9;80.23145;941.3304;;;;
2020/01/10 07:26:09;;;;;;;12;7.8;;;;;;;0.79;80.60938;941.3923;;;;
2020/01/10 07:28:34;;;;;;;15.4;9.1;;;;;;;0.69;81.12598;941.3253;;;;
2020/01/10 07:30:59;;;;;;;14.7;9.8;;;;;;;0.72;81.13281;941.4303;;;;
2020/01/10 07:33:24;;;;;;;18.4;12.1;;;;;;;0.75;81.15039;941.4855;;;;
2020/01/10 07:35:49;;;;;;;19.7;14;;;;;;;0.85;80.63379;941.472;;;;
2020/01/10 07:38:14;;;;;;;18.1;12.8;;;;;;;0.91;80.2207;941.42;;;;
2020/01/10 07:40:40;;;;;;;17.5;10.6;;;;;;;0.73;80.63184;941.4725;;;;
2020/01/10 07:43:05;;;;;;;18.4;13.8;;;;;;;0.77;80.65234;941.5592;;;;
2020/01/10 07:45:30;;;;;;;16.2;12.6;;;;;;;0.84;80.59863;941.6024;;;;
2020/01/10 07:47:55;;;;;;;13.7;9.6;;;;;;;0.77;80.74121;941.5975;;;;
2020/01/10 07:50:20;;;;;;;12.5;8.6;;;;;;;0.77;81.14355;941.5623;;;;
2020/01/10 07:52:45;;;;;;;10.1;7.1;;;;;;;1.42;79.24316;941.4937;;;;
2020/01/10 07:55:10;;;;;;;7.2;4.7;;;;;;;2.49;74.99609;941.4642;;;;
2020/01/10 07:57:35;;;;;;;8.8;6;;;;;;;2.95;72.11621;941.4219;;;;
2020/01/10 08:00:00;;;;;;;8.5;5.2;;;;;;;2.97;71.67188;941.5062;;;;
2020/01/10 08:02:25;;;;;;;9;5.4;;;;;;;3.02;71.71289;941.4355;;;;
2020/01/10 08:04:51;;;;;;;21.9;14.7;;;;;;;3.36;70.88379;941.5287;;;;
2020/01/10 08:07:16;;;;;;;14;9.6;;;;;;;3.9;68.89258;941.4796;;;;
2020/01/10 08:09:41;;;;;;;9.8;6.1;;;;;;;4.38;66.54102;941.494;;;;
2020/01/10 08:12:06;;;;;;;10.2;6.6;;;;;;;5.03;64.69238;941.3334;;;;
2020/01/10 08:14:31;;;;;;;7.8;5.8;;;;;;;5.66;62.52832;941.3981;;;;
2020/01/10 08:16:56;;;;;;;6.5;4.3;;;;;;;6.27;59.96094;941.3187;;;;
2020/01/10 08:19:22;;;;;;;9.1;4.3;;;;;;;6.46;59.11719;941.4072;;;;
2020/01/10 08:21:47;;;;;;;5.5;3.5;;;;;;;6.83;57.24414;941.4001;;;;
2020/01/10 08:24:13;;;;;;;8.5;3.8;;;;;;;7.01;56.98535;941.4601;;;;
2020/01/10 08:26:38;;;;;;;12.6;6.6;;;;;;;6.74;57.44727;941.4384;;;;
2020/01/10 08:29:05;;;;;;;12.7;6.4;;;;;;;6.32;58.4541;941.4367;;;;
2020/01/10 08:31:29;;;;;;;14.5;6.7;;;;;;;6.71;57.99805;941.4439;;;;
2020/01/10 08:33:54;;;;;;;13.5;7.4;;;;;;;7.13;57.05762;941.4579;;;;
2020/01/10 08:36:19;;;;;;;11.7;5.9;;;;;;;7.44;55.59082;941.4604;;;;
2020/01/10 08:38:44;;;;;;;6.8;5;;;;;;;7.49;55.6543;941.4601;;;;
2020/01/10 08:41:09;;;;;;;9.2;6;;;;;;;7.52;55.45508;941.4776;;;;
2020/01/10 08:43:34;;;;;;;10.6;5.2;;;;;;;7.78;54.71582;941.4561;;;;
2020/01/10 08:45:59;;;;;;;10.4;5.3;;;;;;;8.16;53.50391;941.4316;;;;
2020/01/10 08:48:24;;;;;;;9.5;6.1;;;;;;;8.38;53.07715;941.3992;;;;
2020/01/10 08:50:50;;;;;;;10.8;5.1;;;;;;;8.21;53.14746;941.3816;;;;
2020/01/10 08:53:15;;;;;;;5.4;3.6;;;;;;;7.61;54.67188;941.4417;;;;
2020/01/10 08:55:40;;;;;;;11.8;7.9;;;;;;;6.07;59.53809;941.4523;;;;
2020/01/10 08:58:06;;;;;;;5.5;3.8;;;;;;;4.7;62.7041;941.4526;;;;
2020/01/10 09:00:31;;;;;;;6.8;3.7;;;;;;;4.02;66.10059;941.5002;;;;
2020/01/10 09:02:56;;;;;;;10.2;6.7;;;;;;;3.75;67.66602;941.5394;;;;
2020/01/10 09:05:21;;;;;;;8.1;4.8;;;;;;;3.45;68.18066;941.6201;;;;
2020/01/10 09:07:46;;;;;;;6.4;4.6;;;;;;;3.16;69.45801;941.6261;;;;
2020/01/10 09:11:04;;;;;;;7.6;4.9;;;;;;;3.11;70.39258;941.5817;;;;
2020/01/10 09:12:37;;;;;;;7.5;4.9;;;;;;;3.17;70.54883;941.582;;;;
2020/01/10 09:15:02;;;;;;;6.4;4.2;;;;;;;3.14;70.12793;941.5087;;;;
2020/01/10 09:19:18;;;;;;;5.3;3.7;;;;;;;3.17;70.0332;941.6094;;;;
2020/01/10 09:20:00;;;;;;;6.3;4;;;;;;;3.28;69.88086;941.5265;;;;
2020/01/10 09:23:18;;;;;;;7;4;;;;;;;3.35;69.69043;941.6005;;;;
2020/01/10 09:27:17;;;;;;;10.1;5.6;;;;;;;3.61;69.56543;941.5298;;;;
2020/01/10 09:29:42;;;;;;;30.9;16.7;;;;;;;3.95;68.69922;941.5367;;;;
2020/01/10 09:32:05;;;;;;;14.1;8.7;;;;;;;4.22;67.07617;941.4664;;;;
2020/01/10 09:36:51;;;;;;;13.6;4.2;;;;;;;4.64;64.82324;941.3226;;;;
2020/01/10 09:39:15;;;;;;;8.9;3.2;;;;;;;4.76;65.68555;941.4871;;;;
2020/01/10 09:41:41;;;;;;;4.6;2.8;;;;;;;4.8;64.76953;941.4265;;;;
2020/01/10 09:44:06;;;;;;;7.4;2.8;;;;;;;4.83;64.16504;941.4734;;;;
2020/01/10 09:46:31;;;;;;;9.2;4.7;;;;;;;4.96;64.51172;941.5586;;;;
2020/01/10 09:48:56;;;;;;;5.9;3.1;;;;;;;5.09;64.40527;941.5483;;;;
2020/01/10 09:51:22;;;;;;;6.5;2.7;;;;;;;5.22;64.06641;941.6213;;;;
2020/01/10 09:53:47;;;;;;;8.5;2.4;;;;;;;5.3;63.61621;941.688;;;;
2020/01/10 09:56:12;;;;;;;27.9;3.6;;;;;;;5.37;62.96973;941.6972;;;;
2020/01/10 09:58:37;;;;;;;4.1;2.5;;;;;;;5.5;61.97461;941.7004;;;;
2020/01/10 10:01:02;;;;;;;7.6;3.7;;;;;;;5.74;62.6875;941.6827;;;;
2020/01/10 10:03:27;;;;;;;7.3;4.2;;;;;;;5.88;63.08105;941.7028;;;;
2020/01/10 10:05:53;;;;;;;8.6;3.4;;;;;;;6;62.78223;941.7234;;;;
2020/01/10 10:08:18;;;;;;;5.2;3.2;;;;;;;6.12;62.14355;941.6846;;;;
2020/01/10 10:10:43;;;;;;;4.4;2.5;;;;;;;6.14;62.12402;941.6024;;;;
2020/01/10 10:13:09;;;;;;;3.8;2.5;;;;;;;6.21;62.89355;941.6239;;;;
2020/01/10 10:15:34;;;;;;;4.2;2.6;;;;;;;6.32;63.13379;941.5742;;;;
2020/01/10 10:17:59;;;;;;;3.8;2.3;;;;;;;6.42;62.69629;941.5862;;;;
2020/01/10 10:20:24;;;;;;;3.3;2;;;;;;;6.61;59.68066;941.4936;;;;
2020/01/10 10:22:50;;;;;;;3.3;2.2;;;;;;;6.72;59.72949;941.4941;;;;
2020/01/10 10:25:15;;;;;;;3.8;2.3;;;;;;;6.82;58.21484;941.4102;;;;
2020/01/10 10:27:40;;;;;;;3.7;2.1;;;;;;;7;58.72754;941.4669;;;;
2020/01/10 10:30:06;;;;;;;4.1;2.1;;;;;;;7.14;57.64746;941.3536;;;;
2020/01/10 10:32:31;;;;;;;3.2;2;;;;;;;7.47;56.20703;941.4305;;;;
2020/01/10 10:34:56;;;;;;;4.2;2.2;;;;;;;7.81;55.80859;941.2838;;;;
2020/01/10 10:37:21;;;;;;;5.5;1.9;;;;;;;8.06;54.33203;941.3318;;;;
2020/01/10 10:39:46;;;;;;;8.7;2.4;;;;;;;8.23;54.6709;941.3248;;;;
2020/01/10 10:42:11;;;;;;;60;6.3;;;;;;;8.5;53.68164;941.3275;;;;
2020/01/10 10:44:37;;;;;;;25.9;3.6;;;;;;;8.64;52.74512;941.3109;;;;
2020/01/10 10:47:02;;;;;;;6.5;1.4;;;;;;;8.6;50.14941;941.2781;;;;
2020/01/10 10:49:28;;;;;;;27.9;3.3;;;;;;;8.64;49.83594;941.323;;;;
2020/01/10 10:51:53;;;;;;;39.2;4.2;;;;;;;8.66;50.18945;941.2947;;;;
2020/01/10 10:54:19;;;;;;;29.2;3.4;;;;;;;8.75;50.25684;941.3594;;;;
2020/01/10 10:56:44;;;;;;;41.3;4.2;;;;;;;8.74;50.76758;941.267;;;;
2020/01/10 10:59:11;;;;;;;13.4;2.7;;;;;;;8.72;50.26563;941.2825;;;;
2020/01/10 11:01:35;;;;;;;14.8;3;;;;;;;8.81;50.70801;941.3491;;;;
2020/01/10 11:04:00;;;;;;;8.4;2.4;;;;;;;8.89;49.64844;941.399;;;;
2020/01/10 11:06:26;;;;;;;9;2.5;;;;;;;8.93;49.07227;941.4357;;;;
2020/01/10 11:08:51;;;;;;;6.4;2.2;;;;;;;8.84;49.74512;941.4037;;;;
2020/01/10 11:13:44;;;;;;;6.9;2.3;;;;;;;9.04;50.99707;941.5343;;;;
2020/01/10 11:16:08;;;;;;;7.7;2.2;;;;;;;9.13;50.33594;941.5392;;;;
2020/01/10 11:18:33;;;;;;;13.4;3.1;;;;;;;9;51.81152;941.5126;;;;
2020/01/10 11:23:23;;;;;;;10.2;2.1;;;;;;;8.93;50.7793;941.5096;;;;
2020/01/10 11:25:49;;;;;;;8.1;1.8;;;;;;;8.9;49.77441;941.4587;;;;
2020/01/10 11:30:52;;;;;;;19.3;3.1;;;;;;;9.15;49.40527;941.3562;;;;
2020/01/10 11:35:36;;;;;;;8.7;2.2;;;;;;;9.2;49.20508;941.4539;;;;
2020/01/10 11:37:54;;;;;;;8.4;1.9;;;;;;;9.3;48.77344;941.4572;;;;
2020/01/10 11:40:19;;;;;;;22.9;3.4;;;;;;;9.45;48.72168;941.4213;;;;
2020/01/10 11:42:44;;;;;;;1.7;0.9;;;;;;;9.35;46.11328;941.3705;;;;
2020/01/10 11:45:09;;;;;;;2.4;1.2;;;;;;;9.54;45.64453;941.2344;;;;
2020/01/10 11:47:34;;;;;;;2.1;1.3;;;;;;;9.55;47.05762;941.2051;;;;
2020/01/10 11:49:59;;;;;;;2.4;1.4;;;;;;;9.52;48.21582;941.2667;;;;
2020/01/10 11:52:24;;;;;;;6.1;2.7;;;;;;;9.44;51.1123;941.3472;;;;
2020/01/10 11:54:49;;;;;;;8.3;2.6;;;;;;;9.45;50.9082;941.4061;;;;
2020/01/10 11:57:14;;;;;;;4.3;2.2;;;;;;;9.43;50.73633;941.3844;;;;
2020/01/10 11:59:40;;;;;;;5.2;2.1;;;;;;;9.48;50.03613;941.3972;;;;
2020/01/10 12:02:05;;;;;;;6;2.2;;;;;;;9.41;50.33398;941.4083;;;;
2020/01/10 12:04:30;;;;;;;7;2.4;;;;;;;9.53;49.02832;941.3409;;;;
2020/01/10 12:06:55;;;;;;;3.8;1.8;;;;;;;9.43;49.06152;941.4352;;;;
2020/01/10 12:09:20;;;;;;;2;1.3;;;;;;;9.41;48.3418;941.5017;;;;
2020/01/10 12:11:45;;;;;;;2.7;1.3;;;;;;;9.43;48.61816;941.4512;;;;
2020/01/10 12:14:11;;;;;;;2.3;1.4;;;;;;;9.5;48.64844;941.4635;;;;
2020/01/10 12:16:36;;;;;;;3.3;1.4;;;;;;;9.63;48.45703;941.335;;;;
2020/01/10 12:19:02;;;;;;;2;1.3;;;;;;;9.82;47.74902;941.4006;;;;
2020/01/10 12:21:27;;;;;;;3.7;1.5;;;;;;;9.84;47.04395;941.3477;;;;
2020/01/10 12:23:52;;;;;;;14.1;1.7;;;;;;;10.02;47.96582;941.4242;;;;
2020/01/10 12:26:17;;;;;;;3.9;1.2;;;;;;;10.09;47.7207;941.4459;;;;
2020/01/10 12:28:43;;;;;;;2.9;1.4;;;;;;;10.26;48.04785;941.3951;;;;
2020/01/10 12:31:08;;;;;;;3.3;1.2;;;;;;;10.39;47.19531;941.4074;;;;
2020/01/10 12:33:33;;;;;;;9.4;2;;;;;;;10.45;47.22559;941.3346;;;;
2020/01/10 12:35:59;;;;;;;4;1.3;;;;;;;10.57;45.82227;941.4359;;;;
2020/01/10 12:38:24;;;;;;;2.6;1.2;;;;;;;10.63;45.79492;941.507;;;;
2020/01/10 12:40:49;;;;;;;7;1.7;;;;;;;10.59;45.97266;941.5381;;;;
2020/01/10 12:43:14;;;;;;;10.1;1.7;;;;;;;10.6;45.74609;941.5151;;;;
2020/01/10 12:45:40;;;;;;;1.9;1.3;;;;;;;10.7;45.61914;941.4666;;;;
2020/01/10 12:48:06;;;;;;;4.6;1.9;;;;;;;10.78;46.00488;941.5522;;;;
2020/01/10 12:50:31;;;;;;;5.2;1.4;;;;;;;10.87;46.11621;941.4413;;;;
2020/01/10 12:52:56;;;;;;;3;1.3;;;;;;;10.92;46.01855;941.4858;;;;
2020/01/10 12:55:21;;;;;;;3.7;1.1;;;;;;;11.1;46.48438;941.4908;;;;
2020/01/10 12:57:46;;;;;;;2.7;1.1;;;;;;;11.35;45.81445;941.4678;;;;
2020/01/10 13:00:34;;;;;;;2.8;1.1;;;;;;;11.59;45.27832;941.5952;;;;
2020/01/10 13:02:59;;;;;;;1.8;1.2;;;;;;;11.73;44.46875;941.5938;;;;
2020/01/10 13:05:24;;;;;;;3;1;;;;;;;11.76;44.86035;941.4752;;;;
2020/01/10 13:07:50;;;;;;;2.2;1.1;;;;;;;11.74;46.33496;941.6169;;;;
2020/01/10 13:10:14;;;;;;;1.2;0.9;;;;;;;11.69;44.75098;941.6716;;;;
2020/01/10 13:12:40;;;;;;;1.7;1.1;;;;;;;11.47;46.58203;941.5692;;;;
2020/01/10 13:15:05;;;;;;;11.8;2.1;;;;;;;11.44;45.86914;941.631;;;;
2020/01/10 13:17:47;;;;;;;25.9;4.2;;;;;;;11.51;45.38281;941.6469;;;;
2020/01/10 13:22:41;;;;;;;5.3;3;;;;;;;11.5;45.16602;941.7353;;;;
2020/01/10 13:24:46;;;;;;;12.5;2.7;;;;;;;11.6;44.74121;941.742;;;;
2020/01/10 13:27:10;;;;;;;8.3;2.6;;;;;;;11.68;45.32129;941.7759;;;;
2020/01/10 13:29:35;;;;;;;6.7;2.2;;;;;;;11.72;43.81543;941.7508;;;;
2020/01/10 13:32:01;;;;;;;7;2.2;;;;;;;11.64;45.44434;941.7189;;;;
2020/01/10 13:34:26;;;;;;;4.7;2;;;;;;;11.88;44.3457;941.7427;;;;
2020/01/10 13:36:51;;;;;;;2.8;1.5;;;;;;;12.12;43.67188;941.762;;;;
2020/01/10 13:39:16;;;;;;;3.4;1.7;;;;;;;13.45;42.15039;941.7545;;;;
2020/01/10 13:41:41;;;;;;;5.8;2.9;;;;;;;14.56;40.06836;941.7158;;;;
2020/01/10 13:44:07;;;;;;;4.5;2.4;;;;;;;15.53;36.88867;941.7127;;;;
2020/01/10 13:46:33;;;;;;;10.9;3;;;;;;;16.99;34.42676;941.7874;;;;
2020/01/10 13:48:57;;;;;;;10.1;3.8;;;;;;;17.97;33.13477;941.7763;;;;
2020/01/10 13:51:23;;;;;;;13.9;3.7;;;;;;;18.09;31.94727;941.8297;;;;
2020/01/10 13:53:48;;;;;;;18.9;5.8;;;;;;;19.68;30.15039;941.8077;;;;
2020/01/10 13:56:13;;;;;;;23.2;3.6;;;;;;;21.15;27.38379;941.8461;;;;
2020/01/10 13:58:38;;;;;;;4.5;2.1;;;;;;;19.29;28.93555;941.8052;;;;
2020/01/10 14:01:03;;;;;;;14.3;2.8;;;;;;;19.78;28.37305;941.783;;;;
2020/01/10 14:03:29;;;;;;;10.6;3.2;;;;;;;20.64;27.07324;941.8887;;;;
2020/01/10 14:05:54;;;;;;;13;3.7;;;;;;;19.66;28.38867;941.9275;;;;
2020/01/10 14:08:19;;;;;;;14.8;4.2;;;;;;;19.52;29.46387;941.9789;;;;
2020/01/10 14:10:46;;;;;;;18.8;5.8;;;;;;;18.43;30.44824;941.9828;;;;
2020/01/10 14:13:11;;;;;;;20.1;6.2;;;;;;;16.11;34.04688;942.0033;;;;
2020/01/10 14:15:36;;;;;;;19.6;5.8;;;;;;;14.82;36.44824;942.0248;;;;
2020/01/10 14:18:01;;;;;;;14;5.2;;;;;;;13.95;38.45801;942.2209;;;;
2020/01/10 14:20:26;;;;;;;9.5;3.7;;;;;;;13.37;42.00586;942.2491;;;;
2020/01/10 14:22:52;;;;;;;19.9;5.3;;;;;;;12.64;43.03613;942.2863;;;;
2020/01/10 14:25:17;;;;;;;12.5;4.3;;;;;;;12.22;43.0625;942.3475;;;;
2020/01/10 14:27:42;;;;;;;39.3;19.5;;;;;;;12.13;44.41699;942.3519;;;;
2020/01/10 14:30:07;;;;;;;12.5;5.4;;;;;;;12.24;45.63281;942.3389;;;;
2020/01/10 14:32:32;;;;;;;18.8;8.4;;;;;;;12.28;45.625;942.3912;;;;
2020/01/10 14:34:58;;;;;;;28.4;12.9;;;;;;;12.07;45.25879;942.4049;;;;
2020/01/10 14:37:23;;;;;;;54.7;17.5;;;;;;;11.9;45.76855;942.4674;;;;
2020/01/10 14:39:48;;;;;;;107.9;37.7;;;;;;;11.78;46.75195;942.5054;;;;
2020/01/10 14:42:14;;;;;;;39.4;12.9;;;;;;;11.64;46.58887;942.5037;;;;
2020/01/10 14:44:39;;;;;;;45.5;10.9;;;;;;;11.38;46.7666;942.5645;;;;
2020/01/10 14:47:04;;;;;;;29.5;8.1;;;;;;;11.2;47.91211;942.5028;;;;
2020/01/10 14:49:29;;;;;;;40.2;10.3;;;;;;;11.08;49.04297;942.6119;;;;
2020/01/10 14:51:54;;;;;;;53.4;12.4;;;;;;;10.88;48.86035;942.7082;;;;
2020/01/10 14:54:19;;;;;;;47.5;12;;;;;;;10.79;48.91895;942.7266;;;;
2020/01/10 14:56:44;;;;;;;41.1;13.3;;;;;;;10.69;48.91895;942.7711;;;;
2020/01/10 14:59:09;;;;;;;60.9;14.6;;;;;;;10.36;49.86328;942.863;;;;